sensor_id;sensor_type;location;lat;lon;timestamp;pressure;altitude;pressure_sealevel;temperature;humidity
63115;BME280;49208;50.874;6.466;2023-05-11T06:02:56;100376.13;;;11.51;100.00
63115;BME280;49208;50.874;6.466;2023-05-11T06:05:21;100375.50;;;11.67;100.00
63115;BME280;49208;50.874;6.466;2023-05-11T06:07:47;100373.94;;;11.83;100.00
63115;BME280;49208;50.874;6.466;2023-05-11T06:10:12;100375.13;;;11.98;100.00
63115;BME280;49208;50.874;6.466;2023-05-11T06:12:37;100380.81;;;12.11;100.00
63115;BME280;49208;50.874;6.466;2023-05-11T06:15:03;100382.13;;;12.21;100.00
63115;BME280;49208;50.874;6.466;2023-05-11T06:17:28;100378.94;;;12.33;100.00
63115;BME280;49208;50.874;6.466;2023-05-11T06:19:54;100377.88;;;12.38;100.00
63115;BME280;49208;50.874;6.466;2023-05-11T06:22:19;100379.53;;;12.40;100.00
63115;BME280;49208;50.874;6.466;2023-05-11T06:24:44;100375.00;;;12.42;100.00
63115;BME280;49208;50.874;6.466;2023-05-11T06:27:10;100376.75;;;12.43;100.00
63115;BME280;49208;50.874;6.466;2023-05-11T06:29:35;100379.31;;;12.45;100.00
63115;BME280;49208;50.874;6.466;2023-05-11T06:32:01;100378.41;;;12.46;100.00
63115;BME280;49208;50.874;6.466;2023-05-11T06:34:26;100382.88;;;12.45;100.00
63115;BME280;49208;50.874;6.466;2023-05-11T06:36:51;100381.28;;;12.41;100.00
63115;BME280;49208;50.874;6.466;2023-05-11T06:39:17;100372.38;;;12.41;100.00
63115;BME280;49208;50.874;6.466;2023-05-11T06:41:42;100385.66;;;12.42;100.00
63115;BME280;49208;50.874;6.466;2023-05-11T06:44:08;100381.13;;;12.44;100.00
63115;BME280;49208;50.874;6.466;2023-05-11T06:46:34;100380.91;;;12.49;100.00
63115;BME280;49208;50.874;6.466;2023-05-11T06:48:59;100378.13;;;12.52;100.00
63115;BME280;49208;50.874;6.466;2023-05-11T06:51:25;100376.72;;;12.64;100.00
63115;BME280;49208;50.874;6.466;2023-05-11T06:53:50;100380.50;;;12.79;100.00
63115;BME280;49208;50.874;6.466;2023-05-11T06:56:16;100375.44;;;12.91;100.00
63115;BME280;49208;50.874;6.466;2023-05-11T06:58:41;100375.88;;;13.01;100.00
63115;BME280;49208;50.874;6.466;2023-05-11T07:01:07;100381.00;;;13.06;100.00
63115;BME280;49208;50.874;6.466;2023-05-11T07:03:33;100383.28;;;13.13;100.00
63115;BME280;49208;50.874;6.466;2023-05-11T07:05:58;100381.63;;;13.11;100.00
63115;BME280;49208;50.874;6.466;2023-05-11T07:08:24;100388.97;;;13.07;100.00
63115;BME280;49208;50.874;6.466;2023-05-11T07:10:50;100381.00;;;13.06;100.00
63115;BME280;49208;50.874;6.466;2023-05-11T07:13:15;100376.53;;;13.06;100.00
63115;BME280;49208;50.874;6.466;2023-05-11T07:15:41;100385.22;;;13.11;100.00
63115;BME280;49208;50.874;6.466;2023-05-11T07:18:06;100380.28;;;13.21;100.00
63115;BME280;49208;50.874;6.466;2023-05-11T07:20:31;100389.63;;;13.31;100.00
63115;BME280;49208;50.874;6.466;2023-05-11T07:22:57;100388.25;;;13.42;100.00
63115;BME280;49208;50.874;6.466;2023-05-11T07:25:23;100390.56;;;13.49;100.00
63115;BME280;49208;50.874;6.466;2023-05-11T07:27:49;100391.97;;;13.57;100.00
63115;BME280;49208;50.874;6.466;2023-05-11T07:30:14;100400.41;;;13.66;100.00
63115;BME280;49208;50.874;6.466;2023-05-11T07:32:40;100389.91;;;13.81;100.00
63115;BME280;49208;50.874;6.466;2023-05-11T07:35:06;100387.63;;;13.90;100.00
63115;BME280;49208;50.874;6.466;2023-05-11T07:37:32;100399.44;;;14.04;100.00
63115;BME280;49208;50.874;6.466;2023-05-11T07:39:57;100393.78;;;14.10;100.00
63115;BME280;49208;50.874;6.466;2023-05-11T07:42:22;100392.91;;;14.09;100.00
63115;BME280;49208;50.874;6.466;2023-05-11T07:44:48;100392.91;;;14.09;100.00
63115;BME280;49208;50.874;6.466;2023-05-11T07:47:13;100386.00;;;14.05;100.00
63115;BME280;49208;50.874;6.466;2023-05-11T07:49:39;100392.44;;;14.01;100.00
63115;BME280;49208;50.874;6.466;2023-05-11T07:52:05;100392.69;;;13.97;100.00
63115;BME280;49208;50.874;6.466;2023-05-11T07:54:31;100391.19;;;13.91;100.00
63115;BME280;49208;50.874;6.466;2023-05-11T07:56:56;100395.97;;;13.84;100.00
63115;BME280;49208;50.874;6.466;2023-05-11T07:59:22;100397.28;;;13.75;100.00
63115;BME280;49208;50.874;6.466;2023-05-11T08:01:47;100396.78;;;13.67;100.00
63115;BME280;49208;50.874;6.466;2023-05-11T08:04:12;100400.09;;;13.55;100.00
63115;BME280;49208;50.874;6.466;2023-05-11T08:06:38;100395.53;;;13.38;100.00
63115;BME280;49208;50.874;6.466;2023-05-11T08:09:04;100390.63;;;13.29;100.00
63115;BME280;49208;50.874;6.466;2023-05-11T08:11:30;100394.66;;;13.19;100.00
63115;BME280;49208;50.874;6.466;2023-05-11T08:13:55;100387.72;;;13.14;100.00
63115;BME280;49208;50.874;6.466;2023-05-11T08:16:20;100388.00;;;13.08;100.00
63115;BME280;49208;50.874;6.466;2023-05-11T08:18:46;100385.50;;;13.05;100.00
63115;BME280;49208;50.874;6.466;2023-05-11T08:21:11;100390.03;;;13.03;100.00
63115;BME280;49208;50.874;6.466;2023-05-11T08:23:37;100400.84;;;13.00;100.00
63115;BME280;49208;50.874;6.466;2023-05-11T08:26:02;100403.69;;;12.97;100.00
63115;BME280;49208;50.874;6.466;2023-05-11T08:28:27;100401.19;;;12.92;100.00
63115;BME280;49208;50.874;6.466;2023-05-11T08:30:54;100406.69;;;12.89;100.00
63115;BME280;49208;50.874;6.466;2023-05-11T08:33:20;100407.72;;;12.87;100.00
63115;BME280;49208;50.874;6.466;2023-05-11T08:35:45;100404.44;;;12.80;100.00
63115;BME280;49208;50.874;6.466;2023-05-11T08:38:12;100401.91;;;12.77;100.00
63115;BME280;49208;50.874;6.466;2023-05-11T08:40:37;100403.00;;;12.73;100.00
63115;BME280;49208;50.874;6.466;2023-05-11T08:43:04;100410.16;;;12.72;100.00
63115;BME280;49208;50.874;6.466;2023-05-11T08:45:33;100418.16;;;12.72;100.00
63115;BME280;49208;50.874;6.466;2023-05-11T08:47:59;100417.09;;;12.77;100.00
63115;BME280;49208;50.874;6.466;2023-05-11T08:50:25;100415.91;;;12.82;100.00
63115;BME280;49208;50.874;6.466;2023-05-11T08:52:50;100409.38;;;12.89;100.00
63115;BME280;49208;50.874;6.466;2023-05-11T08:55:16;100414.50;;;12.94;100.00
63115;BME280;49208;50.874;6.466;2023-05-11T08:57:43;100412.41;;;13.01;100.00
63115;BME280;49208;50.874;6.466;2023-05-11T09:00:10;100423.75;;;13.06;100.00
63115;BME280;49208;50.874;6.466;2023-05-11T09:02:36;100415.25;;;13.17;100.00
63115;BME280;49208;50.874;6.466;2023-05-11T09:05:02;100417.41;;;13.27;100.00
63115;BME280;49208;50.874;6.466;2023-05-11T09:07:29;100410.41;;;13.44;100.00
63115;BME280;49208;50.874;6.466;2023-05-11T09:09:55;100414.03;;;13.62;100.00
63115;BME280;49208;50.874;6.466;2023-05-11T09:12:21;100409.41;;;13.83;100.00
63115;BME280;49208;50.874;6.466;2023-05-11T09:14:50;100409.13;;;14.06;100.00
63115;BME280;49208;50.874;6.466;2023-05-11T09:17:17;100413.28;;;14.29;100.00
63115;BME280;49208;50.874;6.466;2023-05-11T09:20:02;100401.19;;;14.57;100.00
63115;BME280;49208;50.874;6.466;2023-05-11T09:22:43;100402.72;;;14.79;100.00
63115;BME280;49208;50.874;6.466;2023-05-11T09:25:13;100406.03;;;15.00;100.00
63115;BME280;49208;50.874;6.466;2023-05-11T09:27:40;100404.97;;;15.20;100.00
63115;BME280;49208;50.874;6.466;2023-05-11T09:30:20;100405.84;;;15.36;100.00
63115;BME280;49208;50.874;6.466;2023-05-11T09:40:21;100411.19;;;15.68;96.56
63115;BME280;49208;50.874;6.466;2023-05-11T09:42:47;100405.66;;;15.71;96.28
63115;BME280;49208;50.874;6.466;2023-05-11T09:45:12;100404.56;;;15.75;92.96
63115;BME280;49208;50.874;6.466;2023-05-11T09:47:38;100410.44;;;15.82;92.82
63115;BME280;49208;50.874;6.466;2023-05-11T09:50:16;100411.22;;;15.84;94.24
63115;BME280;49208;50.874;6.466;2023-05-11T09:52:51;100414.47;;;15.89;94.51
63115;BME280;49208;50.874;6.466;2023-05-11T09:55:16;100402.78;;;15.90;94.66
63115;BME280;49208;50.874;6.466;2023-05-11T09:57:41;100404.16;;;15.97;94.21
63115;BME280;49208;50.874;6.466;2023-05-11T10:00:16;100403.47;;;15.93;92.67
63115;BME280;49208;50.874;6.466;2023-05-11T10:02:42;100404.94;;;15.83;92.33
63115;BME280;49208;50.874;6.466;2023-05-11T10:05:11;100401.41;;;15.67;93.18
63115;BME280;49208;50.874;6.466;2023-05-11T10:07:40;100402.28;;;15.51;92.77
63115;BME280;49208;50.874;6.466;2023-05-11T10:10:07;100400.56;;;15.34;92.85
63115;BME280;49208;50.874;6.466;2023-05-11T10:12:34;100396.13;;;15.18;93.36
63115;BME280;49208;50.874;6.466;2023-05-11T10:15:04;100397.59;;;15.07;93.87
63115;BME280;49208;50.874;6.466;2023-05-11T10:17:30;100397.41;;;14.94;95.19
63115;BME280;49208;50.874;6.466;2023-05-11T10:19:56;100396.78;;;14.89;96.29
63115;BME280;49208;50.874;6.466;2023-05-11T10:22:26;100396.84;;;14.88;96.73
63115;BME280;49208;50.874;6.466;2023-05-11T10:24:52;100402.22;;;14.88;96.62
63115;BME280;49208;50.874;6.466;2023-05-11T10:27:19;100398.59;;;14.89;97.29
63115;BME280;49208;50.874;6.466;2023-05-11T10:29:46;100397.72;;;14.88;96.12
63115;BME280;49208;50.874;6.466;2023-05-11T10:32:12;100392.28;;;14.90;97.55
63115;BME280;49208;50.874;6.466;2023-05-11T10:34:37;100385.28;;;14.87;96.83
63115;BME280;49208;50.874;6.466;2023-05-11T10:37:07;100394.09;;;14.89;97.14
63115;BME280;49208;50.874;6.466;2023-05-11T10:39:36;100394.34;;;14.85;95.89
63115;BME280;49208;50.874;6.466;2023-05-11T10:53:54;100386.00;;;15.23;96.01
63115;BME280;49208;50.874;6.466;2023-05-11T10:56:32;100394.47;;;15.31;95.08
63115;BME280;49208;50.874;6.466;2023-05-11T11:01:49;100396.06;;;15.51;93.27
63115;BME280;49208;50.874;6.466;2023-05-11T11:04:16;100395.34;;;15.63;93.41
63115;BME280;49208;50.874;6.466;2023-05-11T11:06:42;100399.28;;;15.73;92.78
63115;BME280;49208;50.874;6.466;2023-05-11T11:09:13;100393.19;;;15.86;92.15
63115;BME280;49208;50.874;6.466;2023-05-11T11:11:45;100398.09;;;15.93;90.66
63115;BME280;49208;50.874;6.466;2023-05-11T11:14:14;100391.78;;;15.94;92.03
63115;BME280;49208;50.874;6.466;2023-05-11T11:16:40;100399.34;;;15.88;89.47
63115;BME280;49208;50.874;6.466;2023-05-11T11:21:54;100394.38;;;15.64;91.02
63115;BME280;49208;50.874;6.466;2023-05-11T11:27:01;100394.50;;;15.63;92.46
63115;BME280;49208;50.874;6.466;2023-05-11T11:29:27;100396.50;;;15.75;94.13
63115;BME280;49208;50.874;6.466;2023-05-11T11:31:52;100396.38;;;15.92;92.62
63115;BME280;49208;50.874;6.466;2023-05-11T11:39:43;100388.13;;;16.85;88.95
63115;BME280;49208;50.874;6.466;2023-05-11T11:42:34;100387.41;;;17.24;89.56
63115;BME280;49208;50.874;6.466;2023-05-11T11:48:13;100383.41;;;17.58;86.67
63115;BME280;49208;50.874;6.466;2023-05-11T11:50:40;100385.97;;;17.74;84.18
63115;BME280;49208;50.874;6.466;2023-05-11T11:53:09;100376.97;;;17.88;84.11
63115;BME280;49208;50.874;6.466;2023-05-11T11:55:46;100379.50;;;18.04;82.55
63115;BME280;49208;50.874;6.466;2023-05-11T12:01:16;100383.19;;;18.16;82.11
63115;BME280;49208;50.874;6.466;2023-05-11T12:03:43;100381.88;;;18.09;79.46
63115;BME280;49208;50.874;6.466;2023-05-11T12:06:11;100385.06;;;18.01;81.05
63115;BME280;49208;50.874;6.466;2023-05-11T12:08:38;100381.31;;;17.91;80.40
63115;BME280;49208;50.874;6.466;2023-05-11T12:11:05;100378.41;;;17.80;81.15
63115;BME280;49208;50.874;6.466;2023-05-11T12:13:31;100387.41;;;17.66;80.30
63115;BME280;49208;50.874;6.466;2023-05-11T12:18:33;100379.63;;;17.61;82.55
63115;BME280;49208;50.874;6.466;2023-05-11T12:20:58;100379.09;;;17.56;82.19
63115;BME280;49208;50.874;6.466;2023-05-11T12:23:24;100373.72;;;17.56;80.62
63115;BME280;49208;50.874;6.466;2023-05-11T12:26:02;100373.59;;;17.57;81.05
63115;BME280;49208;50.874;6.466;2023-05-11T12:28:28;100380.75;;;17.71;81.22
63115;BME280;49208;50.874;6.466;2023-05-11T12:30:54;100374.09;;;17.77;79.65
63115;BME280;49208;50.874;6.466;2023-05-11T12:33:20;100374.00;;;17.93;79.84
63115;BME280;49208;50.874;6.466;2023-05-11T12:35:50;100369.91;;;18.13;78.54
63115;BME280;49208;50.874;6.466;2023-05-11T12:38:16;100362.75;;;18.26;78.14
63115;BME280;49208;50.874;6.466;2023-05-11T12:40:46;100367.25;;;18.38;78.46
63115;BME280;49208;50.874;6.466;2023-05-11T12:43:16;100363.84;;;18.36;74.68
63115;BME280;49208;50.874;6.466;2023-05-11T12:45:42;100369.22;;;18.36;76.27
63115;BME280;49208;50.874;6.466;2023-05-11T12:48:08;100359.63;;;18.45;75.19
63115;BME280;49208;50.874;6.466;2023-05-11T12:50:45;100361.66;;;18.42;74.70
63115;BME280;49208;50.874;6.466;2023-05-11T12:53:14;100357.44;;;18.50;75.19
63115;BME280;49208;50.874;6.466;2023-05-11T12:55:40;100356.78;;;18.47;75.36
63115;BME280;49208;50.874;6.466;2023-05-11T12:58:14;100346.56;;;18.52;76.61
63115;BME280;49208;50.874;6.466;2023-05-11T13:00:56;100348.63;;;18.74;75.41
63115;BME280;49208;50.874;6.466;2023-05-11T13:03:23;100350.13;;;18.78;73.80
63115;BME280;49208;50.874;6.466;2023-05-11T13:05:49;100344.94;;;18.88;72.10
63115;BME280;49208;50.874;6.466;2023-05-11T13:08:18;100347.94;;;18.96;74.67
63115;BME280;49208;50.874;6.466;2023-05-11T13:10:43;100337.22;;;19.20;74.57
63115;BME280;49208;50.874;6.466;2023-05-11T13:13:09;100339.69;;;19.23;72.49
63115;BME280;49208;50.874;6.466;2023-05-11T13:15:48;100342.56;;;19.33;72.01
63115;BME280;49208;50.874;6.466;2023-05-11T13:18:15;100347.56;;;19.50;71.20
63115;BME280;49208;50.874;6.466;2023-05-11T13:20:41;100341.66;;;19.45;70.97
63115;BME280;49208;50.874;6.466;2023-05-11T13:23:15;100338.84;;;19.47;71.39
63115;BME280;49208;50.874;6.466;2023-05-11T13:28:16;100332.72;;;19.32;70.52
63115;BME280;49208;50.874;6.466;2023-05-11T13:30:43;100341.06;;;19.29;70.96
63115;BME280;49208;50.874;6.466;2023-05-11T13:33:09;100331.97;;;19.30;70.78
63115;BME280;49208;50.874;6.466;2023-05-11T13:35:41;100334.59;;;19.31;71.10
63115;BME280;49208;50.874;6.466;2023-05-11T13:38:08;100326.38;;;19.33;70.34
63115;BME280;49208;50.874;6.466;2023-05-11T13:40:33;100325.34;;;19.23;70.78
63115;BME280;49208;50.874;6.466;2023-05-11T13:42:59;100321.25;;;19.17;70.72
63115;BME280;49208;50.874;6.466;2023-05-11T13:45:25;100325.81;;;19.04;70.37
63115;BME280;49208;50.874;6.466;2023-05-11T13:47:51;100312.88;;;18.96;72.37
63115;BME280;49208;50.874;6.466;2023-05-11T13:50:16;100312.59;;;18.88;72.51
63115;BME280;49208;50.874;6.466;2023-05-11T13:52:42;100313.25;;;18.78;73.13
63115;BME280;49208;50.874;6.466;2023-05-11T13:55:08;100317.56;;;18.68;73.18
63115;BME280;49208;50.874;6.466;2023-05-11T13:57:33;100313.38;;;18.51;74.15
63115;BME280;49208;50.874;6.466;2023-05-11T13:59:59;100313.91;;;18.44;75.22
63115;BME280;49208;50.874;6.466;2023-05-11T14:02:25;100311.22;;;18.31;74.47
63115;BME280;49208;50.874;6.466;2023-05-11T14:04:50;100308.19;;;18.10;75.03
63115;BME280;49208;50.874;6.466;2023-05-11T14:07:15;100308.81;;;18.01;73.85
63115;BME280;49208;50.874;6.466;2023-05-11T14:09:41;100306.09;;;18.01;74.14
63115;BME280;49208;50.874;6.466;2023-05-11T14:12:08;100312.06;;;18.06;74.63
63115;BME280;49208;50.874;6.466;2023-05-11T14:14:33;100305.25;;;18.13;74.50
63115;BME280;49208;50.874;6.466;2023-05-11T14:16:59;100306.44;;;18.22;72.83
63115;BME280;49208;50.874;6.466;2023-05-11T14:19:25;100308.19;;;18.23;71.82
63115;BME280;49208;50.874;6.466;2023-05-11T14:21:51;100303.47;;;18.26;72.99
63115;BME280;49208;50.874;6.466;2023-05-11T14:24:16;100302.69;;;18.24;73.44
63115;BME280;49208;50.874;6.466;2023-05-11T14:26:42;100304.09;;;18.30;73.55
63115;BME280;49208;50.874;6.466;2023-05-11T14:29:07;100305.41;;;18.37;74.50
63115;BME280;49208;50.874;6.466;2023-05-11T14:31:33;100296.56;;;18.35;71.13
63115;BME280;49208;50.874;6.466;2023-05-11T14:33:59;100299.56;;;18.43;72.18
63115;BME280;49208;50.874;6.466;2023-05-11T14:36:24;100299.44;;;18.45;71.42
63115;BME280;49208;50.874;6.466;2023-05-11T14:38:49;100295.88;;;18.44;69.72
63115;BME280;49208;50.874;6.466;2023-05-11T14:41:15;100291.38;;;18.32;68.18
63115;BME280;49208;50.874;6.466;2023-05-11T14:43:40;100291.16;;;18.35;71.79
63115;BME280;49208;50.874;6.466;2023-05-11T14:46:06;100292.78;;;18.37;72.71
63115;BME280;49208;50.874;6.466;2023-05-11T14:48:31;100294.38;;;18.27;69.80
63115;BME280;49208;50.874;6.466;2023-05-11T14:50:56;100287.81;;;18.18;69.03
63115;BME280;49208;50.874;6.466;2023-05-11T14:53:22;100287.72;;;18.20;70.84
63115;BME280;49208;50.874;6.466;2023-05-11T14:55:47;100290.50;;;18.18;69.29
63115;BME280;49208;50.874;6.466;2023-05-11T14:58:13;100290.38;;;18.07;70.38
63115;BME280;49208;50.874;6.466;2023-05-11T15:00:38;100291.28;;;18.08;71.41
63115;BME280;49208;50.874;6.466;2023-05-11T15:03:06;100291.13;;;18.09;71.57
63115;BME280;49208;50.874;6.466;2023-05-11T15:05:31;100287.34;;;17.99;69.83
63115;BME280;49208;50.874;6.466;2023-05-11T15:07:57;100281.97;;;17.99;70.34
63115;BME280;49208;50.874;6.466;2023-05-11T15:10:22;100279.59;;;17.94;71.89
63115;BME280;49208;50.874;6.466;2023-05-11T15:12:47;100279.81;;;17.91;71.08
63115;BME280;49208;50.874;6.466;2023-05-11T15:15:13;100289.63;;;17.92;71.52
63115;BME280;49208;50.874;6.466;2023-05-11T15:17:38;100288.31;;;17.85;69.71
63115;BME280;49208;50.874;6.466;2023-05-11T15:20:04;100287.84;;;17.78;72.25
63115;BME280;49208;50.874;6.466;2023-05-11T15:22:30;100285.44;;;17.74;70.73
63115;BME280;49208;50.874;6.466;2023-05-11T15:24:56;100287.34;;;17.59;69.81
63115;BME280;49208;50.874;6.466;2023-05-11T15:27:21;100288.44;;;17.56;70.53
63115;BME280;49208;50.874;6.466;2023-05-11T15:29:47;100290.91;;;17.60;72.99
63115;BME280;49208;50.874;6.466;2023-05-11T15:32:13;100286.69;;;17.55;71.84
63115;BME280;49208;50.874;6.466;2023-05-11T15:34:40;100289.38;;;17.55;71.56
63115;BME280;49208;50.874;6.466;2023-05-11T15:37:06;100296.06;;;17.50;71.94
63115;BME280;49208;50.874;6.466;2023-05-11T15:39:32;100302.41;;;17.49;72.80
63115;BME280;49208;50.874;6.466;2023-05-11T15:41:58;100299.72;;;17.49;73.14
63115;BME280;49208;50.874;6.466;2023-05-11T15:44:23;100296.56;;;17.42;75.20
63115;BME280;49208;50.874;6.466;2023-05-11T15:46:48;100302.34;;;17.36;74.04
63115;BME280;49208;50.874;6.466;2023-05-11T15:49:14;100295.75;;;17.27;74.53
63115;BME280;49208;50.874;6.466;2023-05-11T15:51:40;100304.41;;;17.18;72.94
63115;BME280;49208;50.874;6.466;2023-05-11T15:54:06;100303.66;;;17.16;75.10
63115;BME280;49208;50.874;6.466;2023-05-11T15:56:32;100296.88;;;17.10;75.25
63115;BME280;49208;50.874;6.466;2023-05-11T15:58:57;100298.13;;;17.05;76.12
63115;BME280;49208;50.874;6.466;2023-05-11T16:01:23;100302.06;;;16.99;76.30
63115;BME280;49208;50.874;6.466;2023-05-11T16:03:48;100297.59;;;17.00;76.66
63115;BME280;49208;50.874;6.466;2023-05-11T16:06:13;100298.63;;;16.97;77.43
63115;BME280;49208;50.874;6.466;2023-05-11T16:08:39;100307.28;;;16.88;74.79
63115;BME280;49208;50.874;6.466;2023-05-11T16:11:05;100300.38;;;16.84;79.13
63115;BME280;49208;50.874;6.466;2023-05-11T16:13:31;100294.38;;;16.78;78.59
63115;BME280;49208;50.874;6.466;2023-05-11T16:15:56;100301.44;;;16.67;76.56
63115;BME280;49208;50.874;6.466;2023-05-11T16:18:21;100290.75;;;16.65;78.72
63115;BME280;49208;50.874;6.466;2023-05-11T16:20:47;100300.75;;;16.63;80.54
63115;BME280;49208;50.874;6.466;2023-05-11T16:23:12;100298.16;;;16.62;78.11
63115;BME280;49208;50.874;6.466;2023-05-11T16:25:38;100300.28;;;16.56;78.57
63115;BME280;49208;50.874;6.466;2023-05-11T16:28:03;100294.31;;;16.51;76.99
63115;BME280;49208;50.874;6.466;2023-05-11T16:30:29;100300.75;;;16.49;78.36
63115;BME280;49208;50.874;6.466;2023-05-11T16:32:55;100293.06;;;16.43;78.23
63115;BME280;49208;50.874;6.466;2023-05-11T16:35:20;100291.75;;;16.35;77.75
63115;BME280;49208;50.874;6.466;2023-05-11T16:37:45;100294.69;;;16.31;78.71
63115;BME280;49208;50.874;6.466;2023-05-11T16:40:11;100293.34;;;16.24;78.51
63115;BME280;49208;50.874;6.466;2023-05-11T16:42:37;100302.66;;;16.18;79.17
63115;BME280;49208;50.874;6.466;2023-05-11T16:45:02;100294.03;;;16.13;80.55
63115;BME280;49208;50.874;6.466;2023-05-11T16:47:28;100292.47;;;16.09;80.70
63115;BME280;49208;50.874;6.466;2023-05-11T16:49:53;100289.97;;;16.06;80.97
63115;BME280;49208;50.874;6.466;2023-05-11T16:52:19;100291.22;;;16.00;83.20
63115;BME280;49208;50.874;6.466;2023-05-11T16:54:44;100292.38;;;15.96;83.29
63115;BME280;49208;50.874;6.466;2023-05-11T16:57:10;100285.25;;;15.95;82.70
63115;BME280;49208;50.874;6.466;2023-05-11T16:59:35;100286.31;;;15.92;82.16
63115;BME280;49208;50.874;6.466;2023-05-11T17:02:00;100286.47;;;15.89;82.86
63115;BME280;49208;50.874;6.466;2023-05-11T17:04:26;100281.41;;;15.85;83.46
63115;BME280;49208;50.874;6.466;2023-05-11T17:06:52;100285.91;;;15.84;83.29
63115;BME280;49208;50.874;6.466;2023-05-11T17:09:17;100286.19;;;15.80;83.86
63115;BME280;49208;50.874;6.466;2023-05-11T17:11:43;100291.06;;;15.73;84.92
63115;BME280;49208;50.874;6.466;2023-05-11T17:14:08;100296.66;;;15.68;83.99
63115;BME280;49208;50.874;6.466;2023-05-11T17:16:33;100299.19;;;15.55;82.16
63115;BME280;49208;50.874;6.466;2023-05-11T17:18:59;100298.00;;;15.45;83.94
63115;BME280;49208;50.874;6.466;2023-05-11T17:21:24;100306.09;;;15.29;84.80
63115;BME280;49208;50.874;6.466;2023-05-11T17:23:50;100307.16;;;15.11;84.71
63115;BME280;49208;50.874;6.466;2023-05-11T17:26:15;100323.81;;;15.00;85.87
63115;BME280;49208;50.874;6.466;2023-05-11T17:28:40;100323.81;;;14.84;87.01
63115;BME280;49208;50.874;6.466;2023-05-11T17:31:11;100331.81;;;14.68;89.50
63115;BME280;49208;50.874;6.466;2023-05-11T17:33:37;100327.34;;;14.51;91.39
63115;BME280;49208;50.874;6.466;2023-05-11T17:36:03;100329.28;;;14.32;94.61
63115;BME280;49208;50.874;6.466;2023-05-11T17:38:29;100329.84;;;14.21;97.45
63115;BME280;49208;50.874;6.466;2023-05-11T17:40:57;100329.47;;;14.11;99.94
63115;BME280;49208;50.874;6.466;2023-05-11T17:43:23;100324.66;;;14.01;100.00
63115;BME280;49208;50.874;6.466;2023-05-11T17:45:48;100325.13;;;13.91;100.00
63115;BME280;49208;50.874;6.466;2023-05-11T17:48:14;100323.94;;;13.80;100.00
63115;BME280;49208;50.874;6.466;2023-05-11T17:50:40;100317.56;;;13.65;100.00
63115;BME280;49208;50.874;6.466;2023-05-11T17:53:06;100328.56;;;13.59;100.00
63115;BME280;49208;50.874;6.466;2023-05-11T17:55:31;100334.47;;;13.48;100.00
63115;BME280;49208;50.874;6.466;2023-05-11T17:57:57;100333.59;;;13.47;100.00
63115;BME280;49208;50.874;6.466;2023-05-11T18:00:23;100325.81;;;13.43;100.00
63115;BME280;49208;50.874;6.466;2023-05-11T18:02:48;100327.69;;;13.41;100.00
63115;BME280;49208;50.874;6.466;2023-05-11T18:05:13;100331.66;;;13.32;100.00
63115;BME280;49208;50.874;6.466;2023-05-11T18:07:40;100329.16;;;13.29;100.00
63115;BME280;49208;50.874;6.466;2023-05-11T18:10:06;100327.66;;;13.22;100.00
63115;BME280;49208;50.874;6.466;2023-05-11T18:12:31;100328.84;;;13.16;100.00
63115;BME280;49208;50.874;6.466;2023-05-11T18:14:57;100324.59;;;13.12;100.00
63115;BME280;49208;50.874;6.466;2023-05-11T18:17:23;100327.50;;;13.07;100.00
63115;BME280;49208;50.874;6.466;2023-05-11T18:19:49;100335.66;;;13.04;100.00
63115;BME280;49208;50.874;6.466;2023-05-11T18:22:15;100333.94;;;13.03;100.00
63115;BME280;49208;50.874;6.466;2023-05-11T18:24:40;100339.41;;;13.00;100.00
63115;BME280;49208;50.874;6.466;2023-05-11T18:27:06;100333.19;;;13.00;100.00
63115;BME280;49208;50.874;6.466;2023-05-11T18:29:31;100339.47;;;12.99;100.00
63115;BME280;49208;50.874;6.466;2023-05-11T18:31:56;100340.47;;;12.96;100.00
63115;BME280;49208;50.874;6.466;2023-05-11T18:34:22;100346.84;;;12.93;100.00
63115;BME280;49208;50.874;6.466;2023-05-11T18:36:47;100345.19;;;12.91;100.00
63115;BME280;49208;50.874;6.466;2023-05-11T18:39:13;100351.47;;;12.90;100.00
63115;BME280;49208;50.874;6.466;2023-05-11T18:41:38;100350.66;;;12.88;100.00
63115;BME280;49208;50.874;6.466;2023-05-11T18:44:04;100351.69;;;12.85;100.00
63115;BME280;49208;50.874;6.466;2023-05-11T18:46:30;100351.81;;;12.82;100.00
63115;BME280;49208;50.874;6.466;2023-05-11T18:48:55;100357.38;;;12.78;100.00
63115;BME280;49208;50.874;6.466;2023-05-11T18:51:21;100353.09;;;12.73;100.00
63115;BME280;49208;50.874;6.466;2023-05-11T18:53:49;100362.19;;;12.69;100.00
63115;BME280;49208;50.874;6.466;2023-05-11T18:56:15;100359.63;;;12.68;100.00
63115;BME280;49208;50.874;6.466;2023-05-11T18:58:44;100366.09;;;12.62;100.00
63115;BME280;49208;50.874;6.466;2023-05-11T19:01:10;100359.91;;;12.62;100.00
63115;BME280;49208;50.874;6.466;2023-05-11T19:03:36;100370.47;;;12.63;100.00
63115;BME280;49208;50.874;6.466;2023-05-11T19:06:02;100369.78;;;12.60;100.00
63115;BME280;49208;50.874;6.466;2023-05-11T19:08:28;100369.84;;;12.58;100.00
63115;BME280;49208;50.874;6.466;2023-05-11T19:10:53;100374.38;;;12.56;100.00
63115;BME280;49208;50.874;6.466;2023-05-11T19:13:19;100382.38;;;12.56;100.00
63115;BME280;49208;50.874;6.466;2023-05-11T19:15:44;100377.09;;;12.54;100.00
63115;BME280;49208;50.874;6.466;2023-05-11T19:18:10;100384.38;;;12.51;100.00
63115;BME280;49208;50.874;6.466;2023-05-11T19:20:37;100380.00;;;12.50;100.00
63115;BME280;49208;50.874;6.466;2023-05-11T19:23:02;100386.34;;;12.47;100.00
63115;BME280;49208;50.874;6.466;2023-05-11T19:25:28;100385.53;;;12.45;100.00
63115;BME280;49208;50.874;6.466;2023-05-11T19:27:54;100383.78;;;12.44;100.00